Baden, PA (15005)

10:25 AM EST on February 12, 2016 (GMT -0500)
Economy Borough | | Change Station
CLOSE
Current Station
Personal Weather Station
Location: Baden, PA
Elevation: 1080 ft
Nearby Weather Stations
Active Advisory: Wind Chill Advisory

Elev 1080 ft 40.65 °N, 80.17 °W | Updated 0 second ago

Overcast
Overcast
16.5 °F
Feels Like 7 °F
N
6.3
Wind Variable Wind from WSW
Gusts 6.3 mph

Today
High -- | Low -- °F
--% Chance of Precip.
Yesterday
High -- | Low -- °F
Precip. -- in
Pressure 30.20 in
Visibility 10.0 miles
Clouds Mostly Cloudy 11000 ft
Overcast 20000 ft
Windchill 7 °F
Dew Point -15 °F
Humidity 23%
Rainfall 0.00 in
Snow Depth Not available.
7:19 AM 5:51 PM
Waxing Crescent, 21% visible
METAR KPIT 121451Z 20009KT 10SM BKN110 OVC200 M09/M14 A3011 RMK AO2 SLP227 T10941139 58014
Pressure 30.20 in
Visibility 10.0 miles
Clouds Mostly Cloudy 11000 ft
Overcast 20000 ft
Windchill 7 °F
Dew Point -15 °F
Humidity 23%
Rainfall 0.00 in
Snow Depth Not available.
7:19 AM 5:51 PM
Waxing Crescent, 21% visible
METAR KPIT 121451Z 20009KT 10SM BKN110 OVC200 M09/M14 A3011 RMK AO2 SLP227 T10941139 58014

10-Day Weather Forecast

Almanac

Astronomy

Feb. 12, 2016 Rise Set
Actual Time
Civil Twilight
Nautical Twilight
Astronomical Twilight
Moon
Length of Visible Light
Length of Day
Tomorrow will be .
, % of the Moon is Illuminated

Today's Extremes

State Highs State Lows

Community

WunderPhotos

Upload Photos

1,892,329 photos uploaded!

WunderBlog® & News

Nearby

Air Quality

  Air Quality AQ Index Pollutant
Not available.

Snow Depth

Station Depth Elevation

Earthquake Activity

City Distance Mag. Time & Date
Minimum magnitude displayed is 2.5.

Coastal Water Temperatures

Place Temperature

Stations

Nearby Weather Stations

Station Location Temp. Windchill Dew Point Humidity Wind Precip. Elev Updated Type
                   

Watches & Warnings

Wind Chill Advisory
Issued: 3:29 AM EST Feb. 12, 2016 – National Weather Service

... Wind Chill Advisory in effect from midnight tonight to 9 am
EST Sunday...

The National Weather Service in Pittsburgh has issued a Wind
Chill Advisory... which is in effect from midnight tonight to 9 am
EST Sunday.

* Wind chill... 10 below to 20 below tonight through Sunday
morning.

* Wind... northwest 10 to 15 mph with gusts up to 30 mph.

* Impacts... frost bite and hypothermia are possible if precautions
are not taken.

Recautionary/preparedness actions...

A Wind Chill Advisory means that very cold air and strong winds
will combine to generate low wind chills. This will result in
frost bite and lead to hypothermia if precautions are not taken.
If you must venture outdoors... make sure you wear a hat and
gloves.